Terminal Aerodrome Forecast
Issued by NWS Shreveport, LA

Home | Current Version | Previous Version | Text Only | Print | Product List | Glossary On
Versions: 1 2 3 4 5 6 7 8 9 10 11 12 13 14
686
FTUS44 KSHV 081120
TAFTYR
TAF
KTYR 081120Z 0812/0912 32010KT P6SM SKC
     FM081500 30014G22KT P6SM SKC
     FM081700 32018G28KT P6SM SKC
     FM090000 30009KT P6SM SKC
     FM090300 29006KT P6SM SKC=

USA.gov is the U.S. government's official web portal to all federal, state and local government web resources and services.